sensor_id;sensor_type;location;lat;lon;timestamp;noise_LAeq;noise_LA_min;noise_LA_max;noise_LA01;noise_LA95
57092;Laerm;42968;52.094;4.328;2024-02-26T00:01:19;59.54;38.95;73.57;;
57092;Laerm;42968;52.094;4.328;2024-02-26T00:03:44;60.46;39.08;72.83;;
57092;Laerm;42968;52.094;4.328;2024-02-26T00:06:12;50.62;37.32;68.86;;
57092;Laerm;42968;52.094;4.328;2024-02-26T00:08:37;59.36;37.12;77.67;;
57092;Laerm;42968;52.094;4.328;2024-02-26T00:11:02;54.77;38.95;69.73;;
57092;Laerm;42968;52.094;4.328;2024-02-26T00:13:28;56.87;38.21;74.17;;
57092;Laerm;42968;52.094;4.328;2024-02-26T00:15:53;49.26;38.67;64.18;;
57092;Laerm;42968;52.094;4.328;2024-02-26T00:18:18;52.47;37.70;68.14;;
57092;Laerm;42968;52.094;4.328;2024-02-26T00:20:43;57.00;38.37;76.06;;
57092;Laerm;42968;52.094;4.328;2024-02-26T00:23:11;56.26;36.20;70.80;;
57092;Laerm;42968;52.094;4.328;2024-02-26T00:25:36;55.45;37.88;72.75;;
57092;Laerm;42968;52.094;4.328;2024-02-26T00:28:03;40.61;36.91;57.15;;
57092;Laerm;42968;52.094;4.328;2024-02-26T00:30:28;56.84;37.88;72.78;;
57092;Laerm;42968;52.094;4.328;2024-02-26T00:32:53;55.40;37.52;71.19;;
57092;Laerm;42968;52.094;4.328;2024-02-26T00:35:18;41.00;36.69;49.88;;
57092;Laerm;42968;52.094;4.328;2024-02-26T00:37:45;57.10;38.37;72.98;;
57092;Laerm;42968;52.094;4.328;2024-02-26T00:40:11;53.27;38.05;74.39;;
57092;Laerm;42968;52.094;4.328;2024-02-26T00:42:36;54.85;36.69;72.71;;
57092;Laerm;42968;52.094;4.328;2024-02-26T00:45:01;54.41;37.52;73.55;;
57092;Laerm;42968;52.094;4.328;2024-02-26T00:47:27;54.40;38.21;70.99;;
57092;Laerm;42968;52.094;4.328;2024-02-26T00:49:52;51.51;38.05;69.24;;
57092;Laerm;42968;52.094;4.328;2024-02-26T00:52:17;56.42;36.91;73.93;;
57092;Laerm;42968;52.094;4.328;2024-02-26T00:54:42;61.11;36.20;76.79;;
57092;Laerm;42968;52.094;4.328;2024-02-26T00:57:08;60.65;37.88;76.84;;
57092;Laerm;42968;52.094;4.328;2024-02-26T00:59:33;41.18;37.88;45.20;;
57092;Laerm;42968;52.094;4.328;2024-02-26T01:01:58;54.73;37.32;74.63;;
57092;Laerm;42968;52.094;4.328;2024-02-26T01:04:24;58.81;37.88;74.33;;
57092;Laerm;42968;52.094;4.328;2024-02-26T01:06:50;55.01;37.70;73.46;;
57092;Laerm;42968;52.094;4.328;2024-02-26T01:09:15;61.18;39.46;73.38;;
57092;Laerm;42968;52.094;4.328;2024-02-26T01:11:42;43.02;37.70;55.97;;
57092;Laerm;42968;52.094;4.328;2024-02-26T01:14:07;40.89;37.88;43.19;;
57092;Laerm;42968;52.094;4.328;2024-02-26T01:16:32;52.94;39.08;69.67;;
57092;Laerm;42968;52.094;4.328;2024-02-26T01:18:58;58.62;37.32;74.79;;
57092;Laerm;42968;52.094;4.328;2024-02-26T01:21:23;41.10;36.91;51.43;;
57092;Laerm;42968;52.094;4.328;2024-02-26T01:23:48;40.73;36.69;44.97;;
57092;Laerm;42968;52.094;4.328;2024-02-26T01:26:13;40.81;36.69;49.97;;
57092;Laerm;42968;52.094;4.328;2024-02-26T01:28:39;49.92;37.32;69.84;;
57092;Laerm;42968;52.094;4.328;2024-02-26T01:31:04;56.78;37.32;72.56;;
57092;Laerm;42968;52.094;4.328;2024-02-26T01:33:32;52.88;37.12;70.20;;
57092;Laerm;42968;52.094;4.328;2024-02-26T01:35:58;42.01;37.32;49.50;;
57092;Laerm;42968;52.094;4.328;2024-02-26T01:38:23;41.07;36.20;44.62;;
57092;Laerm;42968;52.094;4.328;2024-02-26T01:40:48;51.61;38.21;67.34;;
57092;Laerm;42968;52.094;4.328;2024-02-26T01:43:13;54.80;36.91;73.10;;
57092;Laerm;42968;52.094;4.328;2024-02-26T01:45:39;52.77;38.21;68.23;;
57092;Laerm;42968;52.094;4.328;2024-02-26T01:48:04;42.05;37.52;53.15;;
57092;Laerm;42968;52.094;4.328;2024-02-26T01:50:29;60.61;36.69;79.38;;
57092;Laerm;42968;52.094;4.328;2024-02-26T01:52:55;40.52;36.69;45.48;;
57092;Laerm;42968;52.094;4.328;2024-02-26T01:55:21;54.86;37.70;71.72;;
57092;Laerm;42968;52.094;4.328;2024-02-26T01:57:48;45.25;37.32;68.59;;
57092;Laerm;42968;52.094;4.328;2024-02-26T02:00:13;41.83;36.69;50.36;;
57092;Laerm;42968;52.094;4.328;2024-02-26T02:02:39;41.18;36.69;49.84;;
57092;Laerm;42968;52.094;4.328;2024-02-26T02:05:07;54.44;37.32;70.61;;
57092;Laerm;42968;52.094;4.328;2024-02-26T02:07:33;57.76;36.45;72.81;;
57092;Laerm;42968;52.094;4.328;2024-02-26T02:10:00;51.14;36.69;67.58;;
57092;Laerm;42968;52.094;4.328;2024-02-26T02:12:25;53.63;37.17;69.40;;
57092;Laerm;42968;52.094;4.328;2024-02-26T02:14:50;40.58;36.20;48.08;;
57092;Laerm;42968;52.094;4.328;2024-02-26T02:17:16;52.03;36.69;70.70;;
57092;Laerm;42968;52.094;4.328;2024-02-26T02:19:41;40.77;35.94;55.91;;
57092;Laerm;42968;52.094;4.328;2024-02-26T02:22:06;52.75;37.12;67.67;;
57092;Laerm;42968;52.094;4.328;2024-02-26T02:24:32;57.63;37.88;73.30;;
57092;Laerm;42968;52.094;4.328;2024-02-26T02:26:57;53.97;36.45;73.17;;
57092;Laerm;42968;52.094;4.328;2024-02-26T02:29:22;40.61;36.69;48.29;;
57092;Laerm;42968;52.094;4.328;2024-02-26T02:31:48;45.56;39.21;61.68;;
57092;Laerm;42968;52.094;4.328;2024-02-26T02:34:13;58.80;36.91;76.16;;
57092;Laerm;42968;52.094;4.328;2024-02-26T02:36:51;56.09;39.92;72.57;;
57092;Laerm;42968;52.094;4.328;2024-02-26T02:39:17;49.01;36.91;70.75;;
57092;Laerm;42968;52.094;4.328;2024-02-26T02:41:42;50.76;36.20;71.35;;
57092;Laerm;42968;52.094;4.328;2024-02-26T02:44:07;53.62;36.56;69.67;;
57092;Laerm;42968;52.094;4.328;2024-02-26T02:46:33;53.88;37.12;71.62;;
57092;Laerm;42968;52.094;4.328;2024-02-26T02:49:00;56.43;37.70;71.40;;
57092;Laerm;42968;52.094;4.328;2024-02-26T02:51:25;53.57;37.52;74.48;;
57092;Laerm;42968;52.094;4.328;2024-02-26T02:53:50;52.52;37.52;69.97;;
57092;Laerm;42968;52.094;4.328;2024-02-26T02:56:16;57.14;38.37;75.13;;
57092;Laerm;42968;52.094;4.328;2024-02-26T02:58:41;62.54;39.08;80.21;;
57092;Laerm;42968;52.094;4.328;2024-02-26T03:01:06;59.38;37.12;75.61;;
57092;Laerm;42968;52.094;4.328;2024-02-26T03:03:31;55.81;37.88;70.39;;
57092;Laerm;42968;52.094;4.328;2024-02-26T03:05:57;56.94;37.70;72.07;;
57092;Laerm;42968;52.094;4.328;2024-02-26T03:08:22;59.20;38.37;72.95;;
57092;Laerm;42968;52.094;4.328;2024-02-26T03:10:47;61.17;39.34;77.97;;
57092;Laerm;42968;52.094;4.328;2024-02-26T03:13:13;52.74;37.88;68.68;;
57092;Laerm;42968;52.094;4.328;2024-02-26T03:15:38;44.25;38.37;58.77;;
57092;Laerm;42968;52.094;4.328;2024-02-26T03:18:04;50.26;37.32;66.21;;
57092;Laerm;42968;52.094;4.328;2024-02-26T03:20:29;55.50;37.12;71.98;;
57092;Laerm;42968;52.094;4.328;2024-02-26T03:22:55;54.95;38.21;72.63;;
57092;Laerm;42968;52.094;4.328;2024-02-26T03:25:20;53.12;39.34;71.63;;
57092;Laerm;42968;52.094;4.328;2024-02-26T03:27:45;46.44;38.67;62.42;;
57092;Laerm;42968;52.094;4.328;2024-02-26T03:30:11;54.93;38.21;68.78;;
57092;Laerm;42968;52.094;4.328;2024-02-26T03:32:36;48.11;37.88;72.47;;
57092;Laerm;42968;52.094;4.328;2024-02-26T03:35:01;46.61;39.70;66.27;;
57092;Laerm;42968;52.094;4.328;2024-02-26T03:37:27;52.13;37.70;68.13;;
57092;Laerm;42968;52.094;4.328;2024-02-26T03:39:52;50.42;36.91;69.61;;
57092;Laerm;42968;52.094;4.328;2024-02-26T03:42:17;59.11;39.08;75.94;;
57092;Laerm;42968;52.094;4.328;2024-02-26T03:44:43;51.00;38.95;69.73;;
57092;Laerm;42968;52.094;4.328;2024-02-26T03:47:08;46.29;38.21;69.44;;
57092;Laerm;42968;52.094;4.328;2024-02-26T03:49:33;56.28;38.52;72.05;;
57092;Laerm;42968;52.094;4.328;2024-02-26T03:51:58;48.02;37.70;66.05;;
57092;Laerm;42968;52.094;4.328;2024-02-26T03:54:24;54.43;38.21;66.48;;
57092;Laerm;42968;52.094;4.328;2024-02-26T03:56:49;56.17;38.81;71.37;;
57092;Laerm;42968;52.094;4.328;2024-02-26T03:59:14;54.15;39.21;73.03;;
57092;Laerm;42968;52.094;4.328;2024-02-26T04:01:44;58.42;38.05;77.67;;
57092;Laerm;42968;52.094;4.328;2024-02-26T04:04:09;55.47;39.34;74.31;;
57092;Laerm;42968;52.094;4.328;2024-02-26T04:06:35;60.01;40.53;72.81;;
57092;Laerm;42968;52.094;4.328;2024-02-26T04:09:00;64.46;40.89;75.92;;
57092;Laerm;42968;52.094;4.328;2024-02-26T04:11:28;61.72;42.03;75.35;;
57092;Laerm;42968;52.094;4.328;2024-02-26T04:13:53;62.05;40.53;76.35;;
57092;Laerm;42968;52.094;4.328;2024-02-26T04:16:19;57.73;40.62;73.19;;
57092;Laerm;42968;52.094;4.328;2024-02-26T04:18:44;64.39;42.98;76.65;;
57092;Laerm;42968;52.094;4.328;2024-02-26T04:21:09;59.22;40.13;75.77;;
57092;Laerm;42968;52.094;4.328;2024-02-26T04:23:34;62.66;44.39;77.08;;
57092;Laerm;42968;52.094;4.328;2024-02-26T04:26:00;62.99;43.44;78.46;;
57092;Laerm;42968;52.094;4.328;2024-02-26T04:28:25;62.71;42.98;74.51;;
57092;Laerm;42968;52.094;4.328;2024-02-26T04:30:51;65.70;42.98;77.95;;
57092;Laerm;42968;52.094;4.328;2024-02-26T04:33:16;53.21;39.70;69.39;;
57092;Laerm;42968;52.094;4.328;2024-02-26T04:35:41;59.51;40.23;75.91;;
57092;Laerm;42968;52.094;4.328;2024-02-26T04:38:07;61.66;42.09;76.86;;
57092;Laerm;42968;52.094;4.328;2024-02-26T04:40:32;66.10;45.63;77.88;;
57092;Laerm;42968;52.094;4.328;2024-02-26T04:42:57;62.58;43.90;74.46;;
57092;Laerm;42968;52.094;4.328;2024-02-26T04:45:22;65.92;44.90;79.44;;
57092;Laerm;42968;52.094;4.328;2024-02-26T04:47:48;67.25;44.58;87.34;;
57092;Laerm;42968;52.094;4.328;2024-02-26T04:50:13;66.59;47.88;79.81;;
57092;Laerm;42968;52.094;4.328;2024-02-26T04:52:38;68.98;47.20;82.98;;
57092;Laerm;42968;52.094;4.328;2024-02-26T04:55:03;64.99;45.72;76.30;;
57092;Laerm;42968;52.094;4.328;2024-02-26T04:57:29;66.24;45.07;77.39;;
57092;Laerm;42968;52.094;4.328;2024-02-26T04:59:54;64.28;44.97;76.86;;
57092;Laerm;42968;52.094;4.328;2024-02-26T05:02:19;66.02;45.54;80.01;;
57092;Laerm;42968;52.094;4.328;2024-02-26T05:04:44;69.32;50.71;82.29;;
57092;Laerm;42968;52.094;4.328;2024-02-26T05:07:10;66.28;49.59;76.82;;
57092;Laerm;42968;52.094;4.328;2024-02-26T05:09:35;67.88;45.94;82.29;;
57092;Laerm;42968;52.094;4.328;2024-02-26T05:12:00;64.34;43.24;75.80;;
57092;Laerm;42968;52.094;4.328;2024-02-26T05:14:26;65.68;46.84;74.98;;
57092;Laerm;42968;52.094;4.328;2024-02-26T05:16:51;65.07;44.83;79.23;;
57092;Laerm;42968;52.094;4.328;2024-02-26T05:19:17;68.74;49.78;78.73;;
57092;Laerm;42968;52.094;4.328;2024-02-26T05:21:42;67.36;44.62;77.98;;
57092;Laerm;42968;52.094;4.328;2024-02-26T05:24:09;67.80;47.95;77.82;;
57092;Laerm;42968;52.094;4.328;2024-02-26T05:26:34;68.21;51.39;79.98;;
57092;Laerm;42968;52.094;4.328;2024-02-26T05:28:59;70.32;45.72;82.43;;
57092;Laerm;42968;52.094;4.328;2024-02-26T05:31:25;70.30;50.66;81.92;;
57092;Laerm;42968;52.094;4.328;2024-02-26T05:33:50;67.62;48.60;76.74;;
57092;Laerm;42968;52.094;4.328;2024-02-26T05:36:20;69.58;45.33;78.74;;
57092;Laerm;42968;52.094;4.328;2024-02-26T05:38:47;68.16;52.06;88.04;;
57092;Laerm;42968;52.094;4.328;2024-02-26T05:41:12;67.79;49.97;76.99;;
57092;Laerm;42968;52.094;4.328;2024-02-26T05:43:37;69.55;47.34;79.28;;
57092;Laerm;42968;52.094;4.328;2024-02-26T05:46:02;70.88;51.00;80.60;;
57092;Laerm;42968;52.094;4.328;2024-02-26T05:48:28;70.03;45.77;79.67;;
57092;Laerm;42968;52.094;4.328;2024-02-26T05:50:53;69.51;55.16;77.78;;
57092;Laerm;42968;52.094;4.328;2024-02-26T05:53:18;71.05;54.00;83.11;;
57092;Laerm;42968;52.094;4.328;2024-02-26T05:55:43;71.37;55.02;81.49;;
57092;Laerm;42968;52.094;4.328;2024-02-26T05:58:09;67.89;45.27;77.60;;
57092;Laerm;42968;52.094;4.328;2024-02-26T06:00:34;71.73;51.60;82.78;;
57092;Laerm;42968;52.094;4.328;2024-02-26T06:02:59;69.81;52.27;81.30;;
57092;Laerm;42968;52.094;4.328;2024-02-26T06:05:24;70.54;49.15;82.62;;
57092;Laerm;42968;52.094;4.328;2024-02-26T06:07:50;70.06;49.96;85.82;;
57092;Laerm;42968;52.094;4.328;2024-02-26T06:10:15;72.59;49.94;90.90;;
57092;Laerm;42968;52.094;4.328;2024-02-26T06:12:40;68.98;49.98;78.60;;
57092;Laerm;42968;52.094;4.328;2024-02-26T06:15:06;70.75;50.98;82.83;;
57092;Laerm;42968;52.094;4.328;2024-02-26T06:17:32;68.51;48.78;77.03;;
57092;Laerm;42968;52.094;4.328;2024-02-26T06:19:57;68.82;49.71;77.36;;
57092;Laerm;42968;52.094;4.328;2024-02-26T06:22:24;68.53;47.00;79.60;;
57092;Laerm;42968;52.094;4.328;2024-02-26T06:24:50;71.90;50.34;78.88;;
57092;Laerm;42968;52.094;4.328;2024-02-26T06:27:15;70.03;50.43;78.47;;
57092;Laerm;42968;52.094;4.328;2024-02-26T06:29:40;68.98;46.48;76.59;;
57092;Laerm;42968;52.094;4.328;2024-02-26T06:32:05;70.90;54.69;78.74;;
57092;Laerm;42968;52.094;4.328;2024-02-26T06:34:31;67.76;52.08;76.74;;
57092;Laerm;42968;52.094;4.328;2024-02-26T06:36:56;70.26;51.34;77.34;;
57092;Laerm;42968;52.094;4.328;2024-02-26T06:39:22;70.57;54.31;81.06;;
57092;Laerm;42968;52.094;4.328;2024-02-26T06:41:47;69.92;50.77;79.86;;
57092;Laerm;42968;52.094;4.328;2024-02-26T06:44:13;70.52;52.07;78.60;;
57092;Laerm;42968;52.094;4.328;2024-02-26T06:46:38;68.89;54.22;87.81;;
57092;Laerm;42968;52.094;4.328;2024-02-26T06:49:04;70.13;53.24;79.87;;
57092;Laerm;42968;52.094;4.328;2024-02-26T06:51:29;70.22;51.44;81.42;;
57092;Laerm;42968;52.094;4.328;2024-02-26T06:53:55;71.43;55.37;86.10;;
57092;Laerm;42968;52.094;4.328;2024-02-26T06:56:20;70.25;52.06;79.65;;
57092;Laerm;42968;52.094;4.328;2024-02-26T06:58:45;69.93;55.36;79.11;;
57092;Laerm;42968;52.094;4.328;2024-02-26T07:01:12;70.68;48.61;87.76;;
57092;Laerm;42968;52.094;4.328;2024-02-26T07:03:37;70.58;48.84;79.41;;
57092;Laerm;42968;52.094;4.328;2024-02-26T07:06:02;69.96;51.04;77.05;;
57092;Laerm;42968;52.094;4.328;2024-02-26T07:08:27;72.58;50.92;85.73;;
57092;Laerm;42968;52.094;4.328;2024-02-26T07:10:53;70.05;59.24;78.36;;
57092;Laerm;42968;52.094;4.328;2024-02-26T07:13:18;71.66;56.08;79.72;;
57092;Laerm;42968;52.094;4.328;2024-02-26T07:15:43;69.54;54.68;81.40;;
57092;Laerm;42968;52.094;4.328;2024-02-26T07:18:09;70.59;53.35;80.66;;
57092;Laerm;42968;52.094;4.328;2024-02-26T07:20:35;71.92;60.75;80.78;;
57092;Laerm;42968;52.094;4.328;2024-02-26T07:23:00;71.56;55.13;82.32;;
57092;Laerm;42968;52.094;4.328;2024-02-26T07:25:26;69.75;52.00;78.88;;
57092;Laerm;42968;52.094;4.328;2024-02-26T07:27:51;69.90;53.15;80.90;;
57092;Laerm;42968;52.094;4.328;2024-02-26T07:30:16;71.76;60.58;82.31;;
57092;Laerm;42968;52.094;4.328;2024-02-26T07:32:42;70.45;56.16;78.78;;
57092;Laerm;42968;52.094;4.328;2024-02-26T07:35:07;71.54;57.54;80.06;;
57092;Laerm;42968;52.094;4.328;2024-02-26T07:37:32;70.53;54.13;78.50;;
57092;Laerm;42968;52.094;4.328;2024-02-26T07:39:58;71.57;59.89;79.60;;
57092;Laerm;42968;52.094;4.328;2024-02-26T07:42:23;69.67;59.91;83.78;;
57092;Laerm;42968;52.094;4.328;2024-02-26T07:44:48;71.37;54.51;78.99;;
57092;Laerm;42968;52.094;4.328;2024-02-26T07:47:13;70.26;61.24;83.06;;
57092;Laerm;42968;52.094;4.328;2024-02-26T07:49:39;70.19;53.21;78.81;;
57092;Laerm;42968;52.094;4.328;2024-02-26T07:52:05;69.89;59.00;77.27;;
57092;Laerm;42968;52.094;4.328;2024-02-26T07:54:30;69.45;59.03;76.69;;
57092;Laerm;42968;52.094;4.328;2024-02-26T07:56:55;69.97;55.31;81.06;;
57092;Laerm;42968;52.094;4.328;2024-02-26T07:59:21;69.81;55.40;78.67;;
57092;Laerm;42968;52.094;4.328;2024-02-26T08:01:52;72.81;49.94;84.72;;
57092;Laerm;42968;52.094;4.328;2024-02-26T08:04:17;70.86;50.05;80.53;;
57092;Laerm;42968;52.094;4.328;2024-02-26T08:06:42;71.46;55.91;84.20;;
57092;Laerm;42968;52.094;4.328;2024-02-26T08:09:08;69.97;54.68;76.67;;
57092;Laerm;42968;52.094;4.328;2024-02-26T08:11:33;71.15;54.50;78.26;;
57092;Laerm;42968;52.094;4.328;2024-02-26T08:13:58;70.89;59.96;84.02;;
57092;Laerm;42968;52.094;4.328;2024-02-26T08:16:24;69.97;55.28;78.46;;
57092;Laerm;42968;52.094;4.328;2024-02-26T08:18:49;71.76;51.86;79.58;;
57092;Laerm;42968;52.094;4.328;2024-02-26T08:21:14;69.40;52.62;78.11;;
57092;Laerm;42968;52.094;4.328;2024-02-26T08:23:40;71.78;49.18;79.81;;
57092;Laerm;42968;52.094;4.328;2024-02-26T08:26:05;71.88;51.33;84.06;;
57092;Laerm;42968;52.094;4.328;2024-02-26T08:28:32;70.30;55.59;79.55;;
57092;Laerm;42968;52.094;4.328;2024-02-26T08:30:57;69.80;51.08;77.70;;
57092;Laerm;42968;52.094;4.328;2024-02-26T08:33:22;72.53;49.73;91.78;;
57092;Laerm;42968;52.094;4.328;2024-02-26T08:35:48;72.48;54.77;86.10;;
57092;Laerm;42968;52.094;4.328;2024-02-26T08:38:13;71.89;51.17;82.12;;
57092;Laerm;42968;52.094;4.328;2024-02-26T08:40:38;71.60;54.93;82.24;;
57092;Laerm;42968;52.094;4.328;2024-02-26T08:43:03;69.70;56.83;78.30;;
57092;Laerm;42968;52.094;4.328;2024-02-26T08:45:31;69.24;51.42;80.82;;
57092;Laerm;42968;52.094;4.328;2024-02-26T08:47:57;70.95;51.59;79.12;;
57092;Laerm;42968;52.094;4.328;2024-02-26T08:50:24;69.42;49.63;77.78;;
57092;Laerm;42968;52.094;4.328;2024-02-26T08:52:49;68.19;51.89;77.59;;
57092;Laerm;42968;52.094;4.328;2024-02-26T08:55:16;71.23;55.17;77.89;;
57092;Laerm;42968;52.094;4.328;2024-02-26T08:57:41;70.89;50.44;78.10;;
57092;Laerm;42968;52.094;4.328;2024-02-26T09:00:07;70.14;47.55;79.03;;
57092;Laerm;42968;52.094;4.328;2024-02-26T09:02:32;69.87;52.10;77.99;;
57092;Laerm;42968;52.094;4.328;2024-02-26T09:04:58;71.58;56.12;85.52;;
57092;Laerm;42968;52.094;4.328;2024-02-26T09:07:23;71.41;52.05;86.37;;
57092;Laerm;42968;52.094;4.328;2024-02-26T09:12:13;69.91;52.58;80.27;;
57092;Laerm;42968;52.094;4.328;2024-02-26T09:14:38;70.40;53.01;79.04;;
57092;Laerm;42968;52.094;4.328;2024-02-26T09:17:04;69.72;48.29;78.79;;
57092;Laerm;42968;52.094;4.328;2024-02-26T09:19:31;69.95;55.82;79.61;;
57092;Laerm;42968;52.094;4.328;2024-02-26T09:21:56;69.55;50.84;78.70;;
57092;Laerm;42968;52.094;4.328;2024-02-26T09:24:23;70.03;53.93;80.85;;
57092;Laerm;42968;52.094;4.328;2024-02-26T09:26:48;69.23;45.83;79.53;;
57092;Laerm;42968;52.094;4.328;2024-02-26T09:29:13;69.23;48.57;80.56;;
57092;Laerm;42968;52.094;4.328;2024-02-26T09:31:38;70.97;53.71;84.36;;
57092;Laerm;42968;52.094;4.328;2024-02-26T09:34:06;69.50;50.98;79.96;;
57092;Laerm;42968;52.094;4.328;2024-02-26T09:36:31;69.36;55.92;75.23;;
57092;Laerm;42968;52.094;4.328;2024-02-26T09:38:56;69.31;52.79;78.69;;
57092;Laerm;42968;52.094;4.328;2024-02-26T09:41:21;71.09;49.78;83.13;;
57092;Laerm;42968;52.094;4.328;2024-02-26T09:43:47;71.92;57.25;87.25;;
57092;Laerm;42968;52.094;4.328;2024-02-26T09:46:13;69.47;46.23;80.25;;
57092;Laerm;42968;52.094;4.328;2024-02-26T09:48:40;69.98;49.28;79.62;;
57092;Laerm;42968;52.094;4.328;2024-02-26T09:51:07;70.56;52.04;84.58;;
57092;Laerm;42968;52.094;4.328;2024-02-26T09:53:34;69.00;49.60;80.54;;
57092;Laerm;42968;52.094;4.328;2024-02-26T09:56:06;71.33;49.29;86.18;;
57092;Laerm;42968;52.094;4.328;2024-02-26T09:58:31;70.56;52.84;82.11;;
57092;Laerm;42968;52.094;4.328;2024-02-26T10:00:57;71.13;49.28;79.01;;
57092;Laerm;42968;52.094;4.328;2024-02-26T10:03:25;70.21;53.30;79.78;;
57092;Laerm;42968;52.094;4.328;2024-02-26T10:05:53;72.15;50.50;80.86;;
57092;Laerm;42968;52.094;4.328;2024-02-26T10:08:20;70.27;49.25;78.82;;
57092;Laerm;42968;52.094;4.328;2024-02-26T10:10:47;70.12;49.20;77.92;;
57092;Laerm;42968;52.094;4.328;2024-02-26T10:13:12;69.86;51.51;79.16;;
57092;Laerm;42968;52.094;4.328;2024-02-26T10:15:38;68.86;49.62;80.21;;
57092;Laerm;42968;52.094;4.328;2024-02-26T10:18:06;70.07;53.28;80.38;;
57092;Laerm;42968;52.094;4.328;2024-02-26T10:20:31;68.53;52.96;77.83;;
57092;Laerm;42968;52.094;4.328;2024-02-26T10:22:57;69.10;48.42;76.66;;
57092;Laerm;42968;52.094;4.328;2024-02-26T10:25:22;69.17;52.29;77.71;;
57092;Laerm;42968;52.094;4.328;2024-02-26T10:27:47;70.11;49.87;79.77;;
57092;Laerm;42968;52.094;4.328;2024-02-26T10:30:15;71.48;51.26;82.49;;
57092;Laerm;42968;52.094;4.328;2024-02-26T10:32:42;69.81;48.71;77.98;;
57092;Laerm;42968;52.094;4.328;2024-02-26T10:35:08;70.39;49.16;84.78;;
57092;Laerm;42968;52.094;4.328;2024-02-26T10:37:33;69.35;52.41;80.47;;
57092;Laerm;42968;52.094;4.328;2024-02-26T10:39:59;70.87;52.02;79.07;;
57092;Laerm;42968;52.094;4.328;2024-02-26T10:42:25;70.35;50.42;79.42;;
57092;Laerm;42968;52.094;4.328;2024-02-26T10:44:50;70.46;47.98;78.75;;
57092;Laerm;42968;52.094;4.328;2024-02-26T10:47:15;71.34;55.01;83.62;;
57092;Laerm;42968;52.094;4.328;2024-02-26T10:49:45;69.67;50.98;77.28;;
57092;Laerm;42968;52.094;4.328;2024-02-26T10:52:10;70.92;47.91;84.11;;
57092;Laerm;42968;52.094;4.328;2024-02-26T10:54:36;69.37;54.33;81.63;;
57092;Laerm;42968;52.094;4.328;2024-02-26T10:57:04;68.92;54.60;77.38;;
57092;Laerm;42968;52.094;4.328;2024-02-26T10:59:30;69.29;50.81;77.84;;
57092;Laerm;42968;52.094;4.328;2024-02-26T11:01:57;69.62;48.23;77.38;;
57092;Laerm;42968;52.094;4.328;2024-02-26T11:04:23;83.01;51.27;105.60;;
57092;Laerm;42968;52.094;4.328;2024-02-26T11:06:52;69.48;48.74;82.42;;
57092;Laerm;42968;52.094;4.328;2024-02-26T11:09:20;70.23;50.20;79.34;;
57092;Laerm;42968;52.094;4.328;2024-02-26T11:11:45;70.08;54.68;77.24;;
57092;Laerm;42968;52.094;4.328;2024-02-26T11:14:11;70.77;52.38;82.40;;
57092;Laerm;42968;52.094;4.328;2024-02-26T11:16:38;70.20;53.57;82.26;;
57092;Laerm;42968;52.094;4.328;2024-02-26T11:19:04;69.65;50.85;78.33;;
57092;Laerm;42968;52.094;4.328;2024-02-26T11:21:31;69.23;51.22;78.25;;
57092;Laerm;42968;52.094;4.328;2024-02-26T11:24:15;69.75;52.21;82.54;;
57092;Laerm;42968;52.094;4.328;2024-02-26T11:26:44;69.92;54.99;77.78;;
57092;Laerm;42968;52.094;4.328;2024-02-26T11:29:13;67.73;52.07;75.29;;
57092;Laerm;42968;52.094;4.328;2024-02-26T11:31:40;70.20;53.78;82.44;;
57092;Laerm;42968;52.094;4.328;2024-02-26T11:34:07;71.73;52.12;84.22;;
57092;Laerm;42968;52.094;4.328;2024-02-26T11:36:33;70.34;49.71;83.14;;
57092;Laerm;42968;52.094;4.328;2024-02-26T11:38:58;70.28;54.72;77.91;;
57092;Laerm;42968;52.094;4.328;2024-02-26T11:41:23;69.35;55.33;77.09;;
57092;Laerm;42968;52.094;4.328;2024-02-26T11:43:49;69.73;49.88;78.96;;
57092;Laerm;42968;52.094;4.328;2024-02-26T11:46:24;72.52;52.25;90.76;;
57092;Laerm;42968;52.094;4.328;2024-02-26T11:48:50;69.82;48.64;76.73;;
57092;Laerm;42968;52.094;4.328;2024-02-26T11:51:15;70.32;52.06;80.65;;
57092;Laerm;42968;52.094;4.328;2024-02-26T11:53:46;70.25;52.63;79.32;;
57092;Laerm;42968;52.094;4.328;2024-02-26T11:58:40;70.20;49.93;80.33;;
57092;Laerm;42968;52.094;4.328;2024-02-26T12:01:05;70.03;48.73;77.92;;
57092;Laerm;42968;52.094;4.328;2024-02-26T12:03:31;69.81;50.66;78.36;;
57092;Laerm;42968;52.094;4.328;2024-02-26T12:05:56;68.67;48.23;82.75;;
57092;Laerm;42968;52.094;4.328;2024-02-26T12:08:21;69.13;50.19;76.54;;
57092;Laerm;42968;52.094;4.328;2024-02-26T12:10:48;69.78;46.73;80.83;;
57092;Laerm;42968;52.094;4.328;2024-02-26T12:13:14;70.58;52.87;80.13;;
57092;Laerm;42968;52.094;4.328;2024-02-26T12:15:41;70.22;49.87;83.61;;
57092;Laerm;42968;52.094;4.328;2024-02-26T12:18:07;70.66;50.98;78.66;;
57092;Laerm;42968;52.094;4.328;2024-02-26T12:20:33;68.51;51.71;76.54;;
57092;Laerm;42968;52.094;4.328;2024-02-26T12:22:58;70.24;55.42;77.89;;
57092;Laerm;42968;52.094;4.328;2024-02-26T12:25:24;70.74;47.22;83.56;;
57092;Laerm;42968;52.094;4.328;2024-02-26T12:27:51;69.20;48.87;77.89;;
57092;Laerm;42968;52.094;4.328;2024-02-26T12:30:16;70.00;53.46;77.70;;
57092;Laerm;42968;52.094;4.328;2024-02-26T12:32:42;69.42;52.42;78.58;;
57092;Laerm;42968;52.094;4.328;2024-02-26T12:35:08;70.95;48.51;78.38;;
57092;Laerm;42968;52.094;4.328;2024-02-26T12:37:33;69.10;49.50;77.51;;
57092;Laerm;42968;52.094;4.328;2024-02-26T12:40:01;69.00;51.85;77.40;;
57092;Laerm;42968;52.094;4.328;2024-02-26T12:42:27;69.50;49.71;79.55;;
57092;Laerm;42968;52.094;4.328;2024-02-26T12:44:52;69.23;53.87;76.08;;
57092;Laerm;42968;52.094;4.328;2024-02-26T12:47:17;70.02;48.60;80.35;;
57092;Laerm;42968;52.094;4.328;2024-02-26T12:49:45;72.57;52.39;81.88;;
57092;Laerm;42968;52.094;4.328;2024-02-26T12:52:11;69.16;50.33;79.50;;
57092;Laerm;42968;52.094;4.328;2024-02-26T12:54:36;70.10;54.11;80.91;;
57092;Laerm;42968;52.094;4.328;2024-02-26T12:57:05;69.55;54.90;76.62;;
57092;Laerm;42968;52.094;4.328;2024-02-26T12:59:32;69.64;52.02;84.97;;
57092;Laerm;42968;52.094;4.328;2024-02-26T13:01:58;68.28;49.64;77.60;;
57092;Laerm;42968;52.094;4.328;2024-02-26T13:04:23;69.14;48.84;77.29;;
57092;Laerm;42968;52.094;4.328;2024-02-26T13:06:49;69.34;56.02;84.74;;
57092;Laerm;42968;52.094;4.328;2024-02-26T13:09:14;70.00;53.35;76.92;;
57092;Laerm;42968;52.094;4.328;2024-02-26T13:11:40;71.82;52.44;80.71;;
57092;Laerm;42968;52.094;4.328;2024-02-26T13:14:05;70.07;50.42;83.57;;
57092;Laerm;42968;52.094;4.328;2024-02-26T13:16:31;76.59;56.61;94.95;;
57092;Laerm;42968;52.094;4.328;2024-02-26T13:19:07;69.77;55.16;79.49;;
57092;Laerm;42968;52.094;4.328;2024-02-26T13:21:33;69.02;48.57;79.14;;
57092;Laerm;42968;52.094;4.328;2024-02-26T13:23:58;70.98;48.08;80.16;;
57092;Laerm;42968;52.094;4.328;2024-02-26T13:26:23;71.56;50.06;79.44;;
57092;Laerm;42968;52.094;4.328;2024-02-26T13:28:59;69.10;46.93;79.19;;
57092;Laerm;42968;52.094;4.328;2024-02-26T13:31:24;69.19;48.51;79.62;;
57092;Laerm;42968;52.094;4.328;2024-02-26T13:33:49;71.42;53.42;82.15;;
57092;Laerm;42968;52.094;4.328;2024-02-26T13:36:14;69.89;52.00;80.37;;
57092;Laerm;42968;52.094;4.328;2024-02-26T13:38:40;70.43;52.88;79.14;;
57092;Laerm;42968;52.094;4.328;2024-02-26T13:41:15;70.97;51.01;81.03;;